Altamont, South Dakota
Current Conditions -  °F | °C
As of 1:13 PM on Friday 21 Nov 2014 (Local Time) from KCNB Reporting Station
Clear Clear  
Wind Chill: -4°   Ceiling: Unl
Heat Index:   Visibility: 10mi
Dew Point: -4°   Wind: 15mph
Humidity: 71%   Direction: 200°SSW
Pressure: 29.89"   Gusts: 23mph
Location:  44.7895°N, 96.7201°W
Report Text: KCNB 211913Z AUTO 20013G20KT 10SM CLR 01/M04 A2989 RMK AO2 T00111036
Loading
Personal Weather Stations






























Interactive Weather Map New forecast layout! Learn more

10-Day Weather Forecast

Advertisements
Track Severe Weather on mobile